Griffithville, Arkansas
Current Conditions -  °F | °C
As of 2:56 PM on Saturday 22 Nov 2014 (Local Time) from KSRC Reporting Station
Broken Clouds Broken Clouds  
Wind Chill: 63°   Ceiling: 4500
Heat Index: 63°   Visibility: 10mi
Dew Point: 51°   Wind: 9mph
Humidity: 65%   Direction: 150°SSE
Pressure: 30.04"   Gusts: NA
Location:  35.12°N, 91.65°W
Report Text: KSRC 222056Z AUTO 15008KT 10SM BKN045 17/11 A3004 RMK AO2 SLP180 T01720106 56039 TSNO
Loading
Personal Weather Stations






























Interactive Weather Map New forecast layout! Learn more

10-Day Weather Forecast

Advertisements
Track Severe Weather on mobile